Time;durP1;ratioP1;P1;durP2;ratioP2;P2;SDS_P1;SDS_P2;PMS_P1;PMS_P2;Temp;Humidity;BMP_temperature;BMP_pressure;BME280_temperature;BME280_humidity;BME280_pressure;Samples;Min_cycle;Max_cycle;Signal;HPM_P1;HPM_P2
2022/03/30 00:00:38;;;;;;;31.10;19.58;;;;;;;7.14;100.00;100698.41;5283130;28;20021;-76
2022/03/30 00:03:10;;;;;;;40.47;21.45;;;;;;;7.13;100.00;100702.00;5279493;28;20048;-76
2022/03/30 00:05:42;;;;;;;37.53;19.73;;;;;;;7.08;100.00;100700.69;5282483;28;20029;-76
2022/03/30 00:08:13;;;;;;;32.88;19.52;;;;;;;7.07;100.00;100709.63;5282901;28;20370;-76
2022/03/30 00:10:45;;;;;;;25.40;17.35;;;;;;;6.98;100.00;100704.09;5277726;28;20033;-76
2022/03/30 00:13:17;;;;;;;32.15;19.73;;;;;;;6.90;100.00;100706.50;5275349;28;20033;-76
2022/03/30 00:15:49;;;;;;;37.97;20.02;;;;;;;6.89;100.00;100703.97;5263850;28;20052;-76
2022/03/30 00:18:21;;;;;;;32.15;19.83;;;;;;;6.86;100.00;100701.59;5282592;28;20191;-76
2022/03/30 00:20:53;;;;;;;37.50;20.75;;;;;;;6.85;100.00;100707.84;5282562;28;20045;-77
2022/03/30 00:23:24;;;;;;;35.28;20.88;;;;;;;6.78;100.00;100708.34;5280826;28;20650;-76
2022/03/30 00:25:55;;;;;;;31.77;19.08;;;;;;;6.75;100.00;100705.94;5264145;28;20036;-76
2022/03/30 00:28:28;;;;;;;35.55;21.65;;;;;;;6.73;100.00;100699.03;5280870;28;20434;-77
2022/03/30 00:30:59;;;;;;;41.28;20.50;;;;;;;6.65;100.00;100697.00;5278954;28;20428;-76
2022/03/30 00:33:30;;;;;;;34.78;20.65;;;;;;;6.61;100.00;100700.88;5279456;28;20049;-76
2022/03/30 00:36:01;;;;;;;37.63;21.45;;;;;;;6.54;100.00;100691.69;5282706;28;20021;-76
2022/03/30 00:38:33;;;;;;;36.03;21.13;;;;;;;6.51;100.00;100687.47;5282062;28;20029;-76
2022/03/30 00:41:04;;;;;;;37.50;21.20;;;;;;;6.50;100.00;100688.44;5259768;28;20050;-76
2022/03/30 00:43:35;;;;;;;33.75;21.95;;;;;;;6.47;100.00;100682.53;5259982;28;20117;-76
2022/03/30 00:46:10;;;;;;;36.75;21.52;;;;;;;6.41;100.00;100681.22;5257263;28;20394;-76
2022/03/30 00:48:42;;;;;;;43.80;21.33;;;;;;;6.35;100.00;100676.41;5260645;28;20080;-76
2022/03/30 00:51:14;;;;;;;40.40;21.60;;;;;;;6.32;100.00;100685.41;5261073;28;20466;-76
2022/03/30 00:53:45;;;;;;;34.42;20.65;;;;;;;6.33;100.00;100691.56;5256161;28;20033;-76
2022/03/30 00:56:16;;;;;;;31.40;19.77;;;;;;;6.38;100.00;100694.69;5260648;28;20091;-76
2022/03/30 00:58:49;;;;;;;38.97;20.42;;;;;;;6.34;100.00;100701.19;5259788;28;20038;-76
2022/03/30 01:01:21;;;;;;;36.13;21.00;;;;;;;6.23;100.00;100680.84;5254418;28;20091;-76
2022/03/30 01:03:52;;;;;;;33.83;21.13;;;;;;;6.25;100.00;100682.41;5258951;28;20049;-76
2022/03/30 01:06:24;;;;;;;35.33;21.13;;;;;;;6.21;100.00;100680.13;5260564;28;20427;-76
2022/03/30 01:08:55;;;;;;;36.95;20.48;;;;;;;6.19;100.00;100674.09;5260060;28;20408;-76
2022/03/30 01:11:30;;;;;;;38.40;21.77;;;;;;;6.16;100.00;100679.63;5260429;28;20045;-76
2022/03/30 01:14:01;;;;;;;33.92;19.00;;;;;;;6.14;100.00;100670.97;5259424;28;20049;-76
2022/03/30 01:16:33;;;;;;;34.53;20.17;;;;;;;5.99;100.00;100673.81;5260732;28;20025;-76
2022/03/30 01:19:06;;;;;;;37.42;20.92;;;;;;;5.97;100.00;100661.66;5263701;28;20094;-76
2022/03/30 01:21:39;;;;;;;34.30;20.45;;;;;;;5.84;100.00;100667.84;5268632;28;20030;-76
2022/03/30 01:24:12;;;;;;;34.90;20.48;;;;;;;5.80;100.00;100662.88;5269674;28;20091;-76
2022/03/30 01:26:43;;;;;;;34.80;19.25;;;;;;;5.82;100.00;100664.47;5269021;28;20689;-76
2022/03/30 01:34:59;;;;;;;39.53;21.45;;;;;;;5.80;100.00;100668.19;5262109;28;20426;-75
2022/03/30 01:37:32;;;;;;;39.15;21.40;;;;;;;5.79;100.00;100661.22;5261914;28;20037;-76
2022/03/30 01:40:05;;;;;;;37.80;21.23;;;;;;;5.75;100.00;100654.44;5261385;28;20425;-76
2022/03/30 01:42:37;;;;;;;36.55;20.50;;;;;;;5.77;100.00;100648.09;5278444;28;20440;-76
2022/03/30 01:45:11;;;;;;;35.25;20.90;;;;;;;5.69;100.00;100639.88;5279690;28;20037;-76
2022/03/30 01:47:54;;;;;;;40.22;20.80;;;;;;;5.73;100.00;100641.31;5278251;28;20234;-75
2022/03/30 01:50:28;;;;;;;35.85;20.88;;;;;;;5.72;100.00;100644.94;5260176;28;20025;-76
2022/03/30 01:53:00;;;;;;;36.55;21.10;;;;;;;5.71;100.00;100645.91;5281508;28;20039;-76
2022/03/30 01:55:31;;;;;;;37.00;20.80;;;;;;;5.64;100.00;100648.16;5269898;28;20036;-75
2022/03/30 01:58:02;;;;;;;36.70;20.65;;;;;;;5.61;100.00;100648.41;5275728;28;20029;-76
2022/03/30 02:00:34;;;;;;;39.20;20.27;;;;;;;5.61;100.00;100652.84;5280458;28;20021;-76
2022/03/30 02:03:05;;;;;;;38.92;21.85;;;;;;;5.52;100.00;100643.78;5279304;28;20025;-76
2022/03/30 02:05:36;;;;;;;34.88;20.83;;;;;;;5.45;100.00;100638.13;5274826;28;41652;-75
2022/03/30 02:08:07;;;;;;;39.78;21.10;;;;;;;5.41;100.00;100636.66;5273919;28;20039;-76
2022/03/30 02:10:39;;;;;;;36.55;19.45;;;;;;;5.45;100.00;100626.69;5281171;28;20094;-75
2022/03/30 02:13:13;;;;;;;38.50;22.00;;;;;;;5.37;100.00;100624.63;5260735;28;20044;-76
2022/03/30 02:15:44;;;;;;;29.98;18.50;;;;;;;5.37;100.00;100634.38;5279441;28;42825;-75
2022/03/30 02:18:16;;;;;;;32.55;19.23;;;;;;;5.44;100.00;100635.59;5276945;28;20382;-76
2022/03/30 02:20:47;;;;;;;37.40;21.98;;;;;;;5.36;100.00;100632.66;5268210;28;20025;-75
2022/03/30 02:23:19;;;;;;;32.45;17.50;;;;;;;5.48;100.00;100635.25;5279684;28;20040;-76
2022/03/30 02:25:50;;;;;;;32.60;19.88;;;;;;;5.26;100.00;100630.72;5280481;28;20044;-76
2022/03/30 02:28:22;;;;;;;36.65;20.67;;;;;;;5.28;100.00;100625.31;5280132;28;20311;-75
2022/03/30 02:30:53;;;;;;;38.28;22.58;;;;;;;5.13;100.00;100624.63;5263939;28;20055;-75
2022/03/30 02:33:25;;;;;;;36.60;21.20;;;;;;;5.06;100.00;100615.47;5258119;28;20087;-76
2022/03/30 02:35:56;;;;;;;43.97;21.73;;;;;;;4.99;100.00;100603.66;5279478;28;20456;-76
2022/03/30 02:38:27;;;;;;;40.20;22.40;;;;;;;4.95;100.00;100605.69;5280044;28;20033;-75
2022/03/30 02:40:59;;;;;;;38.17;21.88;;;;;;;4.91;100.00;100597.13;5281527;28;20049;-76
2022/03/30 02:43:30;;;;;;;37.58;22.65;;;;;;;4.82;100.00;100586.38;5278087;28;20532;-76
2022/03/30 02:46:02;;;;;;;37.88;21.70;;;;;;;4.76;100.00;100586.84;5275684;28;20069;-76
2022/03/30 02:48:35;;;;;;;42.13;21.50;;;;;;;4.73;100.00;100587.88;5263326;28;20350;-76
2022/03/30 02:51:07;;;;;;;42.20;21.25;;;;;;;4.73;100.00;100583.47;5272415;28;20055;-76
2022/03/30 02:53:38;;;;;;;42.63;21.67;;;;;;;4.67;100.00;100585.69;5279246;28;20040;-75
2022/03/30 02:56:10;;;;;;;47.63;21.88;;;;;;;4.61;100.00;100581.72;5283283;28;20331;-75
2022/03/30 02:58:41;;;;;;;38.05;20.65;;;;;;;4.59;100.00;100585.41;5282473;28;20024;-75
2022/03/30 03:01:12;;;;;;;39.40;22.02;;;;;;;4.55;100.00;100584.78;5283633;28;20017;-75
2022/03/30 03:03:44;;;;;;;39.28;20.48;;;;;;;4.54;100.00;100588.34;5283769;28;20032;-75
2022/03/30 03:06:15;;;;;;;38.00;21.75;;;;;;;4.36;100.00;100572.03;5272428;28;20033;-75
2022/03/30 03:08:46;;;;;;;38.08;21.77;;;;;;;4.46;100.00;100586.28;5283272;28;20485;-75
2022/03/30 03:11:17;;;;;;;41.13;21.63;;;;;;;4.48;100.00;100581.72;5271275;28;20381;-76
2022/03/30 03:13:49;;;;;;;41.53;23.20;;;;;;;4.46;100.00;100588.91;5281120;28;20037;-76
2022/03/30 03:16:20;;;;;;;37.35;22.15;;;;;;;4.46;100.00;100580.16;5285182;28;20378;-75
2022/03/30 03:18:51;;;;;;;41.80;22.52;;;;;;;4.45;100.00;100578.47;5283082;28;20389;-76
2022/03/30 03:21:23;;;;;;;43.03;22.63;;;;;;;4.41;100.00;100575.19;5286339;28;20078;-75
2022/03/30 03:23:54;;;;;;;32.72;19.65;;;;;;;4.45;100.00;100573.19;5288461;28;20070;-75
2022/03/30 03:26:25;;;;;;;40.53;22.10;;;;;;;4.38;100.00;100570.13;5285878;28;20247;-75
2022/03/30 03:28:57;;;;;;;41.25;21.23;;;;;;;4.46;100.00;100569.59;5282130;28;20028;-75
2022/03/30 03:31:28;;;;;;;40.38;23.38;;;;;;;4.34;100.00;100568.66;5260537;28;20087;-75
2022/03/30 03:33:59;;;;;;;38.90;21.63;;;;;;;4.36;100.00;100561.47;5277044;28;20112;-75
2022/03/30 03:36:31;;;;;;;40.42;21.10;;;;;;;4.35;100.00;100565.91;5283288;28;20166;-75
2022/03/30 03:39:02;;;;;;;41.90;22.02;;;;;;;4.35;100.00;100563.28;5286226;28;20663;-77
2022/03/30 03:41:33;;;;;;;39.58;23.17;;;;;;;4.20;100.00;100555.59;5284058;28;20041;-76
2022/03/30 03:44:06;;;;;;;43.47;21.08;;;;;;;4.26;100.00;100566.56;5284286;28;20121;-76
2022/03/30 03:46:37;;;;;;;35.85;21.70;;;;;;;4.14;100.00;100562.16;5276559;28;20037;-76
2022/03/30 03:49:08;;;;;;;41.33;23.35;;;;;;;4.14;100.00;100554.25;5285686;28;20374;-75
2022/03/30 03:51:39;;;;;;;41.80;21.63;;;;;;;4.14;100.00;100564.81;5276576;28;20602;-76
2022/03/30 03:54:11;;;;;;;40.13;22.17;;;;;;;4.01;100.00;100556.88;5283452;28;20045;-76
2022/03/30 03:56:42;;;;;;;44.72;22.67;;;;;;;3.89;100.00;100558.59;5276732;28;20029;-75
2022/03/30 03:59:13;;;;;;;35.40;22.48;;;;;;;3.83;100.00;100559.00;5278835;28;20025;-75
2022/03/30 04:01:45;;;;;;;40.28;22.17;;;;;;;3.67;100.00;100556.59;5280895;28;20524;-75
2022/03/30 04:04:17;;;;;;;43.15;21.50;;;;;;;3.58;100.00;100557.22;5284180;28;20422;-75
2022/03/30 04:06:48;;;;;;;42.58;22.45;;;;;;;3.46;100.00;100558.88;5274194;28;20027;-75
2022/03/30 04:09:19;;;;;;;44.53;22.48;;;;;;;3.48;100.00;100545.59;5283495;28;20128;-75
2022/03/30 04:11:52;;;;;;;42.38;22.77;;;;;;;3.41;100.00;100546.00;5283336;28;20029;-75
2022/03/30 04:14:24;;;;;;;41.22;22.70;;;;;;;3.28;100.00;100547.78;5273530;28;20124;-75
2022/03/30 04:16:55;;;;;;;43.22;22.83;;;;;;;3.29;100.00;100544.19;5279213;28;20155;-75
2022/03/30 04:19:26;;;;;;;42.70;22.52;;;;;;;3.19;100.00;100546.63;5283644;28;20082;-75
2022/03/30 04:21:58;;;;;;;41.17;21.90;;;;;;;3.15;100.00;100545.09;5265115;28;20040;-75
2022/03/30 04:24:29;;;;;;;43.17;23.10;;;;;;;3.04;100.00;100542.34;5283953;28;20017;-75
2022/03/30 04:27:00;;;;;;;37.78;22.48;;;;;;;3.02;100.00;100545.09;5283167;28;20216;-75
2022/03/30 04:29:31;;;;;;;35.60;21.20;;;;;;;3.05;100.00;100544.06;5264007;28;20069;-77
2022/03/30 04:32:03;;;;;;;39.97;22.27;;;;;;;2.97;100.00;100541.06;5282793;28;20037;-78
2022/03/30 04:34:34;;;;;;;41.03;22.30;;;;;;;2.98;100.00;100540.97;5282480;28;20056;-77
2022/03/30 04:37:06;;;;;;;40.08;22.27;;;;;;;2.86;100.00;100546.19;5282012;28;20020;-75
2022/03/30 04:39:37;;;;;;;46.15;21.95;;;;;;;2.84;100.00;100541.03;5282643;28;20021;-74
2022/03/30 04:42:08;;;;;;;40.90;22.83;;;;;;;2.67;100.00;100539.50;5281920;28;20045;-75
2022/03/30 04:44:41;;;;;;;43.92;23.85;;;;;;;2.71;100.00;100551.50;5281487;28;22943;-75
2022/03/30 04:47:12;;;;;;;45.63;24.50;;;;;;;2.65;100.00;100547.47;5279370;28;20075;-75
2022/03/30 04:49:44;;;;;;;49.30;25.20;;;;;;;2.58;100.00;100562.00;5282000;28;20033;-75
2022/03/30 04:52:15;;;;;;;47.22;24.25;;;;;;;2.44;100.00;100552.34;5280007;28;20079;-75
2022/03/30 04:54:46;;;;;;;36.45;21.08;;;;;;;2.56;100.00;100555.97;5282571;28;20119;-75
2022/03/30 04:57:17;;;;;;;44.00;23.73;;;;;;;2.49;100.00;100557.31;5259611;28;20029;-75
2022/03/30 04:59:49;;;;;;;38.50;20.80;;;;;;;2.72;100.00;100554.97;5282099;28;20033;-75
2022/03/30 05:02:20;;;;;;;46.10;22.45;;;;;;;2.81;100.00;100560.50;5281903;28;20028;-75
2022/03/30 05:04:51;;;;;;;44.47;24.27;;;;;;;2.74;100.00;100556.59;5279643;28;20053;-75
2022/03/30 05:07:23;;;;;;;49.92;23.23;;;;;;;2.89;100.00;100565.25;5279060;28;20028;-75
2022/03/30 05:09:54;;;;;;;55.28;25.58;;;;;;;2.80;100.00;100547.44;5279303;28;20029;-75
2022/03/30 05:12:25;;;;;;;51.50;25.75;;;;;;;2.63;100.00;100559.91;5281489;28;20124;-75
2022/03/30 05:14:57;;;;;;;45.47;24.70;;;;;;;2.70;100.00;100554.22;5281300;28;20037;-75
2022/03/30 05:17:28;;;;;;;42.72;22.52;;;;;;;2.75;100.00;100549.50;5278268;28;20836;-75
2022/03/30 05:19:59;;;;;;;46.03;23.80;;;;;;;2.75;100.00;100550.38;5280260;28;20036;-75
2022/03/30 05:22:31;;;;;;;48.78;24.60;;;;;;;2.59;100.00;100532.06;5281636;28;20033;-75
2022/03/30 05:25:03;;;;;;;52.53;26.42;;;;;;;2.57;100.00;100551.56;5281543;28;20179;-75
2022/03/30 05:27:34;;;;;;;60.88;27.75;;;;;;;2.46;100.00;100539.06;5279851;28;20091;-75
2022/03/30 05:30:07;;;;;;;53.83;24.95;;;;;;;2.42;100.00;100546.31;5280071;28;20025;-74
2022/03/30 05:32:38;;;;;;;46.67;24.02;;;;;;;2.41;100.00;100543.78;5257501;28;20501;-74
2022/03/30 05:35:09;;;;;;;41.53;24.92;;;;;;;2.34;100.00;100539.84;5279142;28;20045;-75
2022/03/30 05:37:41;;;;;;;44.88;24.50;;;;;;;2.25;100.00;100547.38;5262932;28;20042;-75
2022/03/30 05:40:12;;;;;;;46.65;23.83;;;;;;;2.21;100.00;100547.66;5279225;28;20033;-75
2022/03/30 05:42:44;;;;;;;46.22;24.63;;;;;;;2.22;100.00;100544.94;5278693;28;20390;-75
2022/03/30 05:45:16;;;;;;;48.90;26.17;;;;;;;2.20;100.00;100541.56;5280648;28;20033;-75
2022/03/30 05:47:47;;;;;;;45.60;24.42;;;;;;;2.36;100.00;100543.22;5281508;28;20025;-75
2022/03/30 05:50:21;;;;;;;56.35;27.30;;;;;;;2.31;100.00;100543.50;5279581;28;20071;-75
2022/03/30 05:52:52;;;;;;;52.38;24.77;;;;;;;2.37;100.00;100543.13;5261970;28;20056;-75
2022/03/30 05:55:23;;;;;;;49.88;26.60;;;;;;;2.38;100.00;100539.53;5281004;28;20021;-75
2022/03/30 05:57:54;;;;;;;47.75;26.02;;;;;;;2.56;100.00;100539.31;5245280;28;20434;-75
2022/03/30 06:00:28;;;;;;;55.80;26.02;;;;;;;2.49;100.00;100546.78;5279380;28;20056;-75
2022/03/30 06:03:01;;;;;;;52.60;25.13;;;;;;;2.57;100.00;100541.84;5272825;28;20552;-75
2022/03/30 06:05:32;;;;;;;47.92;25.77;;;;;;;2.55;100.00;100554.28;5281244;28;20029;-76
2022/03/30 06:08:05;;;;;;;52.60;26.15;;;;;;;2.57;100.00;100554.19;5276903;28;20337;-76
2022/03/30 06:10:36;;;;;;;50.80;23.88;;;;;;;2.64;100.00;100548.41;5273735;28;20087;-76
2022/03/30 06:13:08;;;;;;;46.97;26.10;;;;;;;2.63;100.00;100552.00;5277146;28;20116;-76
2022/03/30 06:15:39;;;;;;;44.60;24.67;;;;;;;2.61;100.00;100553.91;5280818;28;20021;-76
2022/03/30 06:18:11;;;;;;;41.55;23.67;;;;;;;3.09;100.00;100561.34;5258506;28;20113;-76
2022/03/30 06:20:43;;;;;;;55.13;25.55;;;;;;;3.16;100.00;100567.91;5277012;28;20179;-76
2022/03/30 06:23:14;;;;;;;48.08;24.27;;;;;;;3.45;100.00;100562.47;5279544;28;20132;-76
2022/03/30 06:25:46;;;;;;;46.42;23.08;;;;;;;3.59;100.00;100558.88;5275760;28;20052;-76
2022/03/30 06:28:21;;;;;;;53.60;26.35;;;;;;;3.81;100.00;100565.34;5275672;28;20409;-76
2022/03/30 06:30:52;;;;;;;58.45;28.70;;;;;;;3.85;100.00;100565.00;5280202;28;20132;-76
2022/03/30 06:33:24;;;;;;;50.47;27.73;;;;;;;3.84;100.00;100560.72;5278450;28;20075;-75
2022/03/30 06:35:56;;;;;;;49.22;20.65;;;;;;;4.25;100.00;100562.22;5281031;28;20482;-77
2022/03/30 06:38:27;;;;;;;60.70;26.75;;;;;;;4.19;100.00;100565.31;5278755;28;20107;-76
2022/03/30 06:40:58;;;;;;;56.80;26.35;;;;;;;4.19;100.00;100557.41;5281882;28;20053;-76
2022/03/30 06:43:30;;;;;;;48.00;25.77;;;;;;;4.51;100.00;100548.97;5280445;28;20366;-76
2022/03/30 06:46:02;;;;;;;45.90;26.17;;;;;;;4.91;100.00;100538.97;5283138;28;20021;-76
2022/03/30 06:48:34;;;;;;;46.33;24.25;;;;;;;5.37;100.00;100549.72;5283016;28;20029;-76
2022/03/30 06:51:05;;;;;;;38.40;22.67;;;;;;;5.81;100.00;100553.41;5285109;28;20020;-76
2022/03/30 06:53:36;;;;;;;45.10;23.35;;;;;;;6.24;100.00;100545.63;5284425;28;20409;-76
2022/03/30 06:56:09;;;;;;;39.78;21.77;;;;;;;6.82;100.00;100552.53;5282873;28;20330;-76
2022/03/30 06:58:41;;;;;;;34.42;19.73;;;;;;;7.08;100.00;100550.38;5266023;28;20040;-76
2022/03/30 07:01:14;;;;;;;34.00;20.25;;;;;;;7.73;100.00;100535.19;5285135;28;20021;-76
2022/03/30 07:03:45;;;;;;;37.05;20.13;;;;;;;8.25;100.00;100528.97;5267722;28;20029;-76
2022/03/30 07:06:17;;;;;;;33.63;19.45;;;;;;;8.68;100.00;100522.53;5264218;28;20477;-76
2022/03/30 07:11:38;;;;;;;29.17;17.60;;;;;;;9.54;100.00;100525.28;5283481;28;20021;-77
2022/03/30 07:14:09;;;;;;;25.77;16.25;;;;;;;10.16;100.00;100528.28;5283875;28;20060;-77
2022/03/30 07:16:40;;;;;;;28.73;17.80;;;;;;;10.38;100.00;100531.59;5266702;28;20024;-76
2022/03/30 07:19:12;;;;;;;33.17;19.13;;;;;;;11.04;100.00;100533.09;5284337;28;20037;-77
2022/03/30 07:21:43;;;;;;;26.27;16.98;;;;;;;11.41;100.00;100532.06;5283060;28;42103;-76
2022/03/30 07:24:14;;;;;;;25.48;17.35;;;;;;;12.01;100.00;100525.13;5283880;28;20043;-76
2022/03/30 07:26:46;;;;;;;26.20;16.45;;;;;;;12.83;100.00;100515.56;5284769;28;20109;-76
2022/03/30 07:29:17;;;;;;;30.48;17.92;;;;;;;13.08;100.00;100523.59;5283377;28;20106;-77
2022/03/30 07:31:48;;;;;;;28.27;16.45;;;;;;;13.13;100.00;100523.09;5284409;28;20021;-76
2022/03/30 07:34:19;;;;;;;27.80;16.90;;;;;;;13.47;100.00;100522.13;5282345;28;20100;-77
2022/03/30 07:36:51;;;;;;;28.70;17.95;;;;;;;13.42;100.00;100530.66;5263569;28;20415;-77
2022/03/30 07:39:22;;;;;;;28.92;17.77;;;;;;;13.55;100.00;100522.94;5263001;28;20026;-77
2022/03/30 07:41:53;;;;;;;27.48;17.67;;;;;;;14.08;95.70;100523.31;5261162;28;41628;-77
2022/03/30 07:44:25;;;;;;;26.42;16.15;;;;;;;13.98;88.09;100523.50;5262606;28;20024;-77
2022/03/30 07:46:58;;;;;;;25.42;16.48;;;;;;;14.58;90.52;100532.00;5263274;28;20164;-77
2022/03/30 07:49:30;;;;;;;27.40;15.63;;;;;;;14.24;82.26;100514.38;5250922;28;20060;-77
2022/03/30 07:52:03;;;;;;;28.35;17.13;;;;;;;14.03;81.93;100514.94;5284461;28;20052;-77
2022/03/30 07:54:34;;;;;;;25.60;15.68;;;;;;;14.76;70.64;100515.63;5284330;28;20049;-77
2022/03/30 07:57:05;;;;;;;26.52;15.95;;;;;;;14.79;70.80;100526.00;5283810;28;20021;-76
2022/03/30 07:59:37;;;;;;;25.60;15.48;;;;;;;14.67;65.60;100524.75;5281154;28;20029;-77
2022/03/30 08:02:10;;;;;;;23.88;15.30;;;;;;;14.60;67.52;100518.41;5261931;28;20018;-77
2022/03/30 08:04:42;;;;;;;25.75;15.52;;;;;;;14.13;73.50;100520.09;5262808;28;20029;-77
2022/03/30 08:07:14;;;;;;;27.13;17.13;;;;;;;13.79;73.06;100518.53;5263035;28;20037;-77
2022/03/30 08:09:45;;;;;;;27.63;16.30;;;;;;;13.62;74.89;100520.41;5263120;28;20441;-77
2022/03/30 08:12:17;;;;;;;24.20;15.68;;;;;;;13.74;79.17;100519.03;5262430;28;20148;-76
2022/03/30 08:14:48;;;;;;;25.90;15.82;;;;;;;14.51;74.49;100521.09;5262507;28;20433;-76
2022/03/30 08:17:20;;;;;;;24.48;14.57;;;;;;;14.96;74.29;100532.09;5279269;28;20033;-77
2022/03/30 08:19:51;;;;;;;23.25;15.07;;;;;;;15.95;64.78;100529.38;5283857;28;20032;-77
2022/03/30 08:22:26;;;;;;;28.83;16.63;;;;;;;17.15;58.37;100530.00;5283849;28;20075;-77
2022/03/30 08:25:00;;;;;;;29.05;17.25;;;;;;;17.41;54.11;100526.69;5283414;28;20017;-77
2022/03/30 08:27:31;;;;;;;21.80;15.27;;;;;;;17.83;50.57;100524.94;5283544;28;20036;-77
2022/03/30 08:30:05;;;;;;;22.67;15.45;;;;;;;17.77;49.65;100526.53;5282656;28;20346;-78
2022/03/30 08:32:37;;;;;;;23.75;16.50;;;;;;;18.86;47.73;100527.72;5262690;28;20727;-78
2022/03/30 08:35:10;;;;;;;24.48;15.77;;;;;;;19.61;44.29;100530.22;5243589;28;29058;-78
2022/03/30 08:37:42;;;;;;;25.02;15.48;;;;;;;19.79;42.15;100524.22;5245046;28;20029;-78
2022/03/30 08:40:13;;;;;;;25.52;16.08;;;;;;;20.33;41.34;100513.22;5262447;28;20018;-78
2022/03/30 08:42:45;;;;;;;26.00;14.07;;;;;;;20.81;40.03;100514.66;5283110;28;20029;-78
2022/03/30 08:45:16;;;;;;;29.85;13.88;;;;;;;20.46;39.80;100504.19;5282998;28;20021;-78
2022/03/30 08:47:48;;;;;;;20.63;13.82;;;;;;;20.53;37.89;100510.41;5282700;28;20032;-78
2022/03/30 08:50:19;;;;;;;19.52;13.13;;;;;;;20.59;38.62;100510.38;5264979;28;20017;-77
2022/03/30 08:52:55;;;;;;;18.27;12.65;;;;;;;20.93;37.51;100507.50;5283022;28;20028;-78
2022/03/30 08:55:27;;;;;;;19.55;13.13;;;;;;;21.56;37.19;100501.16;5282712;28;20040;-77
2022/03/30 08:57:59;;;;;;;19.10;12.90;;;;;;;21.12;37.27;100503.81;5261633;28;20033;-77
2022/03/30 09:00:34;;;;;;;19.35;13.10;;;;;;;22.01;35.04;100500.09;5244203;28;20021;-77
2022/03/30 09:03:07;;;;;;;20.60;12.30;;;;;;;22.64;34.51;100501.63;5273620;28;20029;-77
2022/03/30 09:05:39;;;;;;;20.05;12.52;;;;;;;22.84;33.70;100509.47;5264475;28;20052;-78
2022/03/30 09:08:14;;;;;;;18.70;12.30;;;;;;;23.18;33.52;100509.84;5282482;28;20509;-77
2022/03/30 09:10:48;;;;;;;15.63;11.52;;;;;;;22.84;33.92;100506.75;5282703;28;20040;-77
2022/03/30 09:13:20;;;;;;;17.05;11.63;;;;;;;23.85;32.70;100501.38;5282007;28;20478;-77
2022/03/30 09:15:52;;;;;;;17.83;11.43;;;;;;;24.92;31.69;100499.13;5264326;28;20037;-77
2022/03/30 09:18:23;;;;;;;15.05;11.50;;;;;;;25.44;29.63;100495.38;5282807;28;20036;-77
2022/03/30 09:20:57;;;;;;;16.08;11.05;;;;;;;24.94;28.86;100490.69;5279773;28;20031;-77
2022/03/30 09:23:29;;;;;;;16.13;11.48;;;;;;;25.61;28.87;100493.44;5261133;28;20143;-77
2022/03/30 09:26:01;;;;;;;16.45;11.63;;;;;;;24.26;30.25;100488.59;5261656;28;20060;-77
2022/03/30 09:28:32;;;;;;;25.63;12.55;;;;;;;23.71;30.70;100489.84;5260485;28;20100;-77
2022/03/30 09:31:03;;;;;;;18.42;11.77;;;;;;;24.79;30.23;100475.72;5276916;28;20025;-77
2022/03/30 09:33:35;;;;;;;16.02;12.43;;;;;;;24.98;29.50;100476.34;5282285;28;20101;-77
2022/03/30 09:36:25;;;;;;;15.07;11.25;;;;;;;26.77;30.53;100477.94;5268559;28;20029;-77
2022/03/30 09:38:57;;;;;;;22.25;12.00;;;;;;;26.09;28.32;100474.72;5282150;28;20419;-77
2022/03/30 09:41:55;;;;;;;17.30;13.20;;;;;;;26.84;27.86;100476.88;5282597;28;20049;-77
2022/03/30 09:44:28;;;;;;;16.42;12.50;;;;;;;25.79;28.16;100467.75;5277747;28;20033;-77
2022/03/30 09:47:05;;;;;;;18.65;12.15;;;;;;;26.16;27.29;100472.59;5282678;28;20032;-77
2022/03/30 09:49:43;;;;;;;19.30;12.00;;;;;;;24.58;29.19;100466.34;5282370;28;20024;-77
2022/03/30 09:52:23;;;;;;;19.98;12.80;;;;;;;25.85;27.82;100458.53;5281943;28;20021;-77
2022/03/30 09:54:57;;;;;;;22.38;13.48;;;;;;;25.44;28.15;100457.16;5282085;28;20029;-77
2022/03/30 09:57:35;;;;;;;15.15;11.82;;;;;;;27.26;27.61;100470.66;5282325;28;20049;-77
2022/03/30 10:00:12;;;;;;;15.63;12.75;;;;;;;26.57;26.50;100464.84;5281622;28;20385;-77
2022/03/30 10:02:49;;;;;;;17.35;13.40;;;;;;;26.79;26.74;100459.34;5280729;28;20029;-77
2022/03/30 10:05:22;;;;;;;20.23;11.82;;;;;;;27.66;26.09;100450.94;5281345;28;20373;-77
2022/03/30 10:07:55;;;;;;;20.15;13.30;;;;;;;28.58;24.82;100455.16;5282334;28;20017;-77
2022/03/30 10:10:26;;;;;;;18.90;12.43;;;;;;;27.86;24.46;100452.97;5281912;28;20021;-77
2022/03/30 10:12:57;;;;;;;19.52;12.73;;;;;;;27.01;25.60;100452.94;5281386;28;20048;-77
2022/03/30 10:15:29;;;;;;;16.23;13.17;;;;;;;26.79;25.12;100445.66;5264088;28;20041;-77
2022/03/30 10:18:01;;;;;;;17.50;12.80;;;;;;;26.82;26.13;100444.31;5281653;28;20272;-77
2022/03/30 10:20:32;;;;;;;19.63;12.75;;;;;;;27.37;25.34;100438.72;5279034;28;20463;-77
2022/03/30 10:23:15;;;;;;;19.35;12.18;;;;;;;27.38;24.85;100446.69;5282155;28;20097;-77
2022/03/30 10:26:08;;;;;;;19.00;12.93;;;;;;;29.01;24.23;100437.31;5281310;28;20013;-77
2022/03/30 10:28:39;;;;;;;19.88;13.52;;;;;;;28.84;23.75;100434.06;5281015;28;20021;-77
2022/03/30 10:31:11;;;;;;;20.40;11.97;;;;;;;28.94;22.95;100430.47;5264270;28;20357;-77
2022/03/30 10:33:44;;;;;;;16.58;11.95;;;;;;;28.44;24.10;100425.50;5263947;28;20051;-77
2022/03/30 10:36:25;;;;;;;15.45;11.52;;;;;;;29.70;23.33;100429.53;5281709;28;20417;-77
2022/03/30 10:39:24;;;;;;;24.33;12.30;;;;;;;31.17;21.91;100421.75;5262823;28;20017;-78
2022/03/30 10:42:08;;;;;;;19.83;12.55;;;;;;;30.49;22.60;100415.16;5279244;28;20452;-78
2022/03/30 10:44:57;;;;;;;18.25;12.40;;;;;;;30.76;21.88;100411.91;5281343;28;20025;-78
2022/03/30 10:47:29;;;;;;;16.85;12.15;;;;;;;28.98;22.47;100415.09;5281389;28;20135;-77
2022/03/30 10:50:03;;;;;;;17.88;11.38;;;;;;;29.16;22.84;100411.00;5263390;28;20063;-77
2022/03/30 10:52:43;;;;;;;16.05;12.02;;;;;;;29.47;23.33;100402.69;5281900;28;20520;-78
2022/03/30 10:55:14;;;;;;;17.98;12.52;;;;;;;30.67;21.06;100400.69;5281049;28;20091;-77
2022/03/30 10:58:03;;;;;;;16.85;11.77;;;;;;;30.62;22.20;100400.72;5276305;28;20458;-77
2022/03/30 11:00:36;;;;;;;14.95;11.02;;;;;;;30.82;20.85;100397.00;5266668;28;20067;-77
2022/03/30 11:03:21;;;;;;;15.50;12.10;;;;;;;32.08;20.81;100388.72;5277612;28;20079;-77
2022/03/30 11:06:02;;;;;;;13.38;11.93;;;;;;;32.64;20.27;100378.78;5280632;28;20092;-77
2022/03/30 11:08:33;;;;;;;15.05;11.95;;;;;;;31.78;19.98;100382.50;5264082;28;20013;-77
2022/03/30 11:11:20;;;;;;;16.10;11.77;;;;;;;32.09;20.11;100381.31;5260621;28;20025;-77
2022/03/30 11:14:20;;;;;;;15.77;11.73;;;;;;;33.29;20.65;100366.88;5238352;28;20060;-77
2022/03/30 11:17:00;;;;;;;18.52;11.43;;;;;;;32.33;19.53;100361.88;5272904;28;20033;-77
2022/03/30 11:19:47;;;;;;;17.23;12.02;;;;;;;33.37;20.34;100365.34;5253148;28;20112;-77
2022/03/30 11:22:28;;;;;;;13.93;11.15;;;;;;;32.42;20.54;100355.38;5262834;28;20084;-77
2022/03/30 11:25:19;;;;;;;21.30;11.93;;;;;;;31.85;21.00;100357.31;5266459;28;20033;-77
2022/03/30 11:27:56;;;;;;;20.20;11.75;;;;;;;32.16;20.88;100346.69;5284409;28;20029;-77
2022/03/30 11:30:30;;;;;;;19.40;11.93;;;;;;;31.61;20.07;100354.59;5283558;28;38001;-78
2022/03/30 11:33:06;;;;;;;17.08;11.90;;;;;;;31.46;20.37;100339.06;5284288;28;20330;-77
2022/03/30 11:35:39;;;;;;;16.27;12.02;;;;;;;30.61;20.72;100341.31;5272356;28;20034;-77
2022/03/30 11:38:21;;;;;;;19.40;11.63;;;;;;;30.83;20.85;100346.31;5263986;28;20184;-77
2022/03/30 11:41:05;;;;;;;17.45;11.60;;;;;;;30.53;21.50;100339.19;5264410;28;20041;-78
2022/03/30 11:46:32;;;;;;;13.18;10.23;;;;;;;30.45;20.00;100334.28;5282804;28;20041;-78